Time;durP1;ratioP1;P1;durP2;ratioP2;P2;SDS_P1;SDS_P2;PMS_P1;PMS_P2;Temp;Humidity;BMP_temperature;BMP_pressure;BME280_temperature;BME280_humidity;BME280_pressure;Samples;Min_cycle;Max_cycle;Signal;HPM_P1;HPM_P2
2021/09/10 00:02:12;;;;;;;15.77;9.63;;;21.30;99.90;;;;;;4959177;28;20238;-83
2021/09/10 00:04:38;;;;;;;15.40;9.93;;;21.50;99.90;;;;;;4961609;28;20212;-83
2021/09/10 00:07:04;;;;;;;15.03;9.70;;;21.40;99.90;;;;;;4971446;28;20641;-83
2021/09/10 00:09:29;;;;;;;16.77;10.60;;;21.50;99.90;;;;;;4957993;28;20183;-82
2021/09/10 00:11:55;;;;;;;15.60;9.00;;;21.40;99.90;;;;;;4955438;28;20195;-81
2021/09/10 00:14:21;;;;;;;14.93;9.60;;;21.40;99.90;;;;;;4960735;28;20583;-83
2021/09/10 00:16:46;;;;;;;19.90;8.50;;;21.40;99.90;;;;;;4959353;28;20213;-82
2021/09/10 00:19:12;;;;;;;14.10;8.17;;;21.40;99.90;;;;;;4971121;28;20673;-82
2021/09/10 00:21:38;;;;;;;12.40;8.17;;;21.40;99.90;;;;;;4974261;28;20190;-82
2021/09/10 00:24:04;;;;;;;13.07;8.23;;;21.30;99.90;;;;;;4971068;28;20222;-82
2021/09/10 00:26:30;;;;;;;14.97;8.37;;;21.30;99.90;;;;;;4956525;28;20277;-82
2021/09/10 00:28:56;;;;;;;13.63;8.83;;;21.30;99.90;;;;;;4959476;28;20268;-82
2021/09/10 00:31:22;;;;;;;14.60;7.87;;;21.30;99.90;;;;;;4973501;28;20222;-83
2021/09/10 00:33:48;;;;;;;13.23;8.40;;;21.20;99.90;;;;;;4971474;28;20206;-83
2021/09/10 00:36:13;;;;;;;15.63;8.40;;;21.20;99.90;;;;;;4957714;28;20629;-82
2021/09/10 00:38:39;;;;;;;12.77;8.10;;;21.20;99.90;;;;;;4964865;28;20191;-82
2021/09/10 00:41:05;;;;;;;13.50;8.30;;;21.20;99.90;;;;;;4977619;28;20674;-83
2021/09/10 00:43:31;;;;;;;14.13;8.70;;;21.20;99.90;;;;;;4944885;28;20217;-83
2021/09/10 00:45:58;;;;;;;14.83;8.80;;;21.10;99.90;;;;;;4974792;28;20225;-83
2021/09/10 00:48:25;;;;;;;15.87;8.97;;;21.10;99.90;;;;;;4955636;28;20194;-83
2021/09/10 00:50:51;;;;;;;15.23;8.70;;;21.10;99.90;;;;;;4957773;28;20194;-83
2021/09/10 00:53:17;;;;;;;12.27;8.00;;;21.00;99.90;;;;;;4954452;28;20703;-82
2021/09/10 00:55:45;;;;;;;13.60;8.13;;;21.00;99.90;;;;;;4975018;28;20198;-83
2021/09/10 00:58:11;;;;;;;14.97;8.60;;;21.00;99.90;;;;;;4941549;28;20226;-83
2021/09/10 01:00:37;;;;;;;13.63;8.10;;;21.00;99.90;;;;;;4973783;28;20186;-83
2021/09/10 01:03:04;;;;;;;13.57;8.20;;;21.00;99.90;;;;;;4961066;28;20700;-83
2021/09/10 01:05:30;;;;;;;16.83;8.40;;;21.00;99.90;;;;;;4955830;28;20550;-83
2021/09/10 01:07:57;;;;;;;12.50;7.73;;;21.00;99.90;;;;;;4972102;28;20209;-82
2021/09/10 01:10:23;;;;;;;15.70;8.90;;;21.00;99.90;;;;;;4977697;28;20334;-82
2021/09/10 01:12:50;;;;;;;13.23;8.37;;;21.10;99.90;;;;;;4957003;28;20197;-82
2021/09/10 01:15:17;;;;;;;15.43;8.37;;;21.10;99.90;;;;;;4943129;28;20548;-83
2021/09/10 01:17:43;;;;;;;16.10;8.20;;;21.10;99.90;;;;;;4954643;28;20174;-83
2021/09/10 01:20:09;;;;;;;13.23;8.53;;;21.10;99.90;;;;;;4973307;28;20196;-83
2021/09/10 01:22:36;;;;;;;15.90;8.17;;;21.10;99.90;;;;;;4975438;28;20190;-83
2021/09/10 01:25:11;;;;;;;13.40;8.13;;;21.10;99.90;;;;;;4958013;28;20194;-84
2021/09/10 01:27:46;;;;;;;16.67;8.60;;;21.20;99.90;;;;;;4972207;28;20274;-83
2021/09/10 01:30:15;;;;;;;13.53;7.73;;;21.10;99.90;;;;;;4954991;28;20189;-84
2021/09/10 01:32:41;;;;;;;13.83;8.13;;;21.10;99.90;;;;;;4974787;28;20213;-83
2021/09/10 01:35:08;;;;;;;14.40;7.87;;;21.20;99.90;;;;;;4972911;28;20640;-83
2021/09/10 01:37:34;;;;;;;14.40;8.50;;;21.20;99.90;;;;;;4972077;28;20204;-84
2021/09/10 01:40:00;;;;;;;14.33;7.77;;;21.10;99.90;;;;;;4970808;28;20670;-84
2021/09/10 01:42:26;;;;;;;13.17;8.27;;;21.20;99.90;;;;;;4955257;28;20203;-83
2021/09/10 01:44:52;;;;;;;11.57;7.60;;;21.20;99.90;;;;;;4973698;28;20197;-84
2021/09/10 01:47:18;;;;;;;14.03;8.93;;;21.10;99.90;;;;;;4975098;28;20190;-83
2021/09/10 01:49:44;;;;;;;14.80;7.87;;;21.10;99.90;;;;;;4959216;28;20192;-83
2021/09/10 01:52:10;;;;;;;15.10;8.30;;;21.10;99.90;;;;;;4976470;28;20189;-83
2021/09/10 01:54:36;;;;;;;18.23;8.57;;;21.10;99.90;;;;;;4975545;28;20237;-83
2021/09/10 01:57:02;;;;;;;14.60;8.60;;;21.10;99.90;;;;;;4962534;28;20178;-83
2021/09/10 01:59:28;;;;;;;16.00;8.97;;;21.10;99.90;;;;;;4975110;28;20297;-83
2021/09/10 02:01:54;;;;;;;15.83;8.97;;;21.00;99.90;;;;;;4961862;28;20721;-83
2021/09/10 02:04:21;;;;;;;16.67;8.63;;;21.00;99.90;;;;;;4961980;28;20193;-84
2021/09/10 02:06:47;;;;;;;14.07;8.70;;;21.00;99.90;;;;;;4974989;28;20194;-82
2021/09/10 02:09:13;;;;;;;15.53;8.30;;;21.00;99.90;;;;;;4979183;28;20229;-83
2021/09/10 02:11:39;;;;;;;14.57;7.90;;;21.00;99.90;;;;;;4958832;28;20287;-82
2021/09/10 02:14:05;;;;;;;14.70;8.23;;;21.00;99.90;;;;;;4962478;28;20301;-83
2021/09/10 02:16:31;;;;;;;13.43;7.77;;;20.90;99.90;;;;;;4975822;28;20184;-83
2021/09/10 02:18:57;;;;;;;13.10;7.90;;;20.80;99.90;;;;;;4975338;28;20193;-83
2021/09/10 02:21:22;;;;;;;13.00;7.73;;;20.90;99.90;;;;;;4960217;28;20778;-82
2021/09/10 02:23:48;;;;;;;13.37;8.03;;;20.80;99.90;;;;;;4976422;28;20668;-82
2021/09/10 02:26:14;;;;;;;15.30;8.23;;;20.70;99.90;;;;;;4961113;28;20210;-83
2021/09/10 02:28:40;;;;;;;16.03;8.17;;;20.70;99.90;;;;;;4977344;28;20240;-83
2021/09/10 02:31:06;;;;;;;14.87;8.70;;;20.60;99.90;;;;;;4959431;28;20273;-83
2021/09/10 02:33:32;;;;;;;17.80;9.20;;;20.60;99.90;;;;;;4959926;28;20197;-82
2021/09/10 02:35:58;;;;;;;19.37;9.80;;;20.70;99.90;;;;;;4959830;28;20927;-83
2021/09/10 02:38:24;;;;;;;14.47;9.07;;;20.70;99.90;;;;;;4958948;28;20198;-83
2021/09/10 02:40:50;;;;;;;15.33;9.73;;;20.80;99.90;;;;;;4976593;28;20189;-83
2021/09/10 02:43:16;;;;;;;15.83;8.93;;;20.80;99.90;;;;;;4960171;28;20277;-83
2021/09/10 02:45:42;;;;;;;17.10;9.13;;;20.80;99.90;;;;;;4961988;28;20646;-83
2021/09/10 02:48:08;;;;;;;17.53;10.33;;;20.80;99.90;;;;;;4957971;28;20187;-83
2021/09/10 02:50:34;;;;;;;18.70;10.50;;;20.70;99.90;;;;;;4976540;28;20199;-83
2021/09/10 02:52:59;;;;;;;19.57;10.77;;;20.80;99.90;;;;;;4975446;28;20191;-83
2021/09/10 02:55:28;;;;;;;22.37;11.23;;;20.80;99.90;;;;;;4959071;28;20207;-83
2021/09/10 02:57:54;;;;;;;19.93;10.93;;;20.70;99.90;;;;;;4958438;28;20202;-83
2021/09/10 03:00:22;;;;;;;20.20;11.23;;;20.70;99.90;;;;;;4962319;28;20723;-84
2021/09/10 03:02:49;;;;;;;19.93;10.90;;;20.60;99.90;;;;;;4976374;28;20217;-83
2021/09/10 03:05:15;;;;;;;20.20;11.07;;;20.60;99.90;;;;;;4973702;28;20208;-83
2021/09/10 03:07:41;;;;;;;24.83;11.73;;;20.60;99.90;;;;;;4976946;28;20656;-83
2021/09/10 03:10:08;;;;;;;21.60;12.10;;;20.60;99.90;;;;;;4957568;28;20186;-83
2021/09/10 03:12:36;;;;;;;22.67;12.13;;;20.60;99.90;;;;;;4974940;28;20197;-83
2021/09/10 03:15:07;;;;;;;22.60;12.37;;;20.70;99.90;;;;;;4975264;28;20720;-82
2021/09/10 03:17:32;;;;;;;22.07;12.43;;;20.70;99.90;;;;;;4954626;28;20193;-82
2021/09/10 03:19:58;;;;;;;25.97;12.73;;;20.60;99.90;;;;;;4957303;28;20274;-83
2021/09/10 03:22:24;;;;;;;27.77;13.87;;;20.70;99.90;;;;;;4955280;28;20259;-81
2021/09/10 03:24:49;;;;;;;26.80;14.00;;;20.60;99.90;;;;;;4956853;28;20629;-82
2021/09/10 03:27:15;;;;;;;29.60;15.70;;;20.60;99.90;;;;;;4974159;28;20180;-84
2021/09/10 03:29:41;;;;;;;31.27;15.33;;;20.60;99.90;;;;;;4973700;28;20644;-83
2021/09/10 03:32:07;;;;;;;31.93;16.47;;;20.60;99.90;;;;;;4977297;28;20203;-83
2021/09/10 03:34:33;;;;;;;28.03;16.13;;;20.50;99.90;;;;;;4973229;28;20185;-83
2021/09/10 03:36:59;;;;;;;31.13;16.20;;;20.50;99.90;;;;;;4946395;28;20249;-83
2021/09/10 03:39:24;;;;;;;28.57;15.77;;;20.50;99.90;;;;;;4973371;28;20264;-83
2021/09/10 03:41:50;;;;;;;26.17;14.33;;;20.50;99.90;;;;;;4953937;28;20184;-83
2021/09/10 03:44:16;;;;;;;21.47;12.57;;;20.50;99.90;;;;;;4973908;28;20194;-84
2021/09/10 03:46:42;;;;;;;22.93;11.03;;;20.50;99.90;;;;;;4956263;28;20184;-84
2021/09/10 03:49:07;;;;;;;19.07;9.73;;;20.50;99.90;;;;;;4976795;28;20194;-84
2021/09/10 03:51:33;;;;;;;16.60;8.90;;;20.50;99.90;;;;;;4973192;28;20286;-84
2021/09/10 03:53:59;;;;;;;16.90;8.00;;;20.40;99.90;;;;;;4976029;28;20301;-84
2021/09/10 03:56:25;;;;;;;13.50;6.97;;;20.40;99.90;;;;;;4972792;28;20180;-83
2021/09/10 03:58:50;;;;;;;13.17;6.97;;;20.30;99.90;;;;;;4972386;28;20221;-83
2021/09/10 04:01:17;;;;;;;16.07;6.87;;;20.30;99.90;;;;;;4976226;28;20186;-84
2021/09/10 04:03:43;;;;;;;11.33;5.93;;;20.30;99.90;;;;;;4943093;28;20184;-83
2021/09/10 04:06:11;;;;;;;12.27;6.60;;;20.30;99.90;;;;;;4973760;28;20320;-83
2021/09/10 04:08:39;;;;;;;14.73;6.47;;;20.30;99.90;;;;;;4973462;28;20180;-83
2021/09/10 04:11:06;;;;;;;12.30;6.67;;;20.40;99.90;;;;;;4955305;28;20186;-84
2021/09/10 04:13:33;;;;;;;14.33;6.30;;;20.50;99.90;;;;;;4959537;28;20197;-82
2021/09/10 04:15:59;;;;;;;10.40;5.80;;;20.50;99.90;;;;;;4972612;28;20170;-83
2021/09/10 04:18:24;;;;;;;11.30;5.97;;;20.50;99.90;;;;;;4961424;28;20685;-83
2021/09/10 04:20:50;;;;;;;11.40;6.07;;;20.50;99.90;;;;;;4972905;28;20553;-82
2021/09/10 04:23:16;;;;;;;12.27;6.07;;;20.50;99.90;;;;;;4973857;28;20662;-83
2021/09/10 04:25:41;;;;;;;12.07;6.63;;;20.60;99.90;;;;;;4975228;28;20657;-83
2021/09/10 04:28:07;;;;;;;13.07;6.13;;;20.60;99.90;;;;;;4970300;28;20224;-82
2021/09/10 04:30:33;;;;;;;12.03;6.57;;;20.60;99.90;;;;;;4972967;28;20174;-82
2021/09/10 04:32:59;;;;;;;14.07;6.83;;;20.60;99.90;;;;;;4972635;28;20581;-82
2021/09/10 04:35:25;;;;;;;12.27;7.20;;;20.60;99.90;;;;;;4972935;28;20196;-82
2021/09/10 04:37:51;;;;;;;15.03;7.47;;;20.60;99.90;;;;;;4971715;28;20192;-83
2021/09/10 04:40:18;;;;;;;12.57;6.77;;;20.70;99.90;;;;;;4970030;28;20234;-82
2021/09/10 04:42:44;;;;;;;13.77;7.43;;;20.70;99.90;;;;;;4954134;28;20193;-81
2021/09/10 04:45:10;;;;;;;14.83;7.50;;;20.70;99.90;;;;;;4973488;28;20299;-81
2021/09/10 04:47:36;;;;;;;14.33;7.97;;;20.70;99.90;;;;;;4955669;28;20193;-82
2021/09/10 04:50:03;;;;;;;14.10;8.33;;;20.70;99.90;;;;;;4973210;28;20235;-82
2021/09/10 04:52:29;;;;;;;15.97;8.80;;;20.70;99.90;;;;;;4955677;28;20181;-83
2021/09/10 04:54:55;;;;;;;13.87;8.20;;;20.70;99.90;;;;;;4973134;28;20245;-83
2021/09/10 04:57:21;;;;;;;14.30;8.43;;;20.80;99.90;;;;;;4969734;28;20198;-83
2021/09/10 04:59:48;;;;;;;16.77;9.40;;;20.80;99.90;;;;;;4970146;28;20189;-83
2021/09/10 05:02:13;;;;;;;15.07;8.70;;;20.80;99.90;;;;;;4960152;28;20696;-83
2021/09/10 05:04:39;;;;;;;13.73;8.23;;;20.80;99.90;;;;;;4958232;28;20245;-82
2021/09/10 05:07:05;;;;;;;13.63;8.27;;;20.80;99.90;;;;;;4977297;28;20192;-82
2021/09/10 05:09:31;;;;;;;14.00;8.07;;;20.70;99.90;;;;;;4970635;28;20185;-82
2021/09/10 05:11:56;;;;;;;14.00;8.40;;;20.80;99.90;;;;;;4970658;28;20208;-82
2021/09/10 05:14:22;;;;;;;14.33;8.33;;;20.70;99.90;;;;;;4972256;28;20280;-83
2021/09/10 05:16:49;;;;;;;16.43;9.10;;;20.80;99.90;;;;;;4969461;28;20193;-83
2021/09/10 05:19:14;;;;;;;17.30;8.70;;;20.80;99.90;;;;;;4971993;28;20290;-83
2021/09/10 05:21:40;;;;;;;15.03;8.90;;;20.80;99.90;;;;;;4959348;28;20216;-81
2021/09/10 05:24:06;;;;;;;18.13;9.30;;;20.90;99.90;;;;;;4973566;28;20181;-82
2021/09/10 05:26:32;;;;;;;17.60;9.43;;;20.90;99.90;;;;;;4962204;28;20650;-83
2021/09/10 05:28:58;;;;;;;18.00;9.77;;;21.00;99.90;;;;;;4973189;28;20599;-82
2021/09/10 05:31:25;;;;;;;19.33;10.00;;;21.00;99.90;;;;;;4945236;28;20190;-82
2021/09/10 05:33:51;;;;;;;17.93;9.07;;;20.90;99.90;;;;;;4973952;28;20287;-82
2021/09/10 05:36:17;;;;;;;15.50;9.60;;;20.90;99.90;;;;;;4975479;28;20704;-82
2021/09/10 05:38:42;;;;;;;17.67;9.23;;;20.90;99.90;;;;;;4975024;28;20245;-82
2021/09/10 05:41:08;;;;;;;16.00;9.20;;;20.90;99.90;;;;;;4973263;28;20268;-81
2021/09/10 05:43:34;;;;;;;15.67;9.13;;;20.90;99.90;;;;;;4976373;28;20181;-82
2021/09/10 05:46:00;;;;;;;17.70;9.03;;;20.80;99.90;;;;;;4973402;28;20203;-82
2021/09/10 05:48:26;;;;;;;16.13;9.60;;;20.80;99.90;;;;;;4975056;28;20198;-82
2021/09/10 05:50:51;;;;;;;14.53;9.23;;;20.80;99.90;;;;;;4957704;28;20203;-82
2021/09/10 05:53:17;;;;;;;15.70;9.80;;;20.80;99.90;;;;;;4975514;28;20276;-83
2021/09/10 05:55:44;;;;;;;16.23;9.37;;;20.80;99.90;;;;;;4974465;28;20171;-82
2021/09/10 05:58:10;;;;;;;18.90;9.70;;;20.90;99.90;;;;;;4973738;28;20234;-83
2021/09/10 06:00:37;;;;;;;16.67;9.43;;;21.00;99.90;;;;;;4956737;28;20202;-82
2021/09/10 06:03:06;;;;;;;18.10;10.23;;;21.00;99.90;;;;;;4974283;28;20229;-83
2021/09/10 06:05:32;;;;;;;15.50;8.70;;;21.20;99.90;;;;;;4959252;28;20210;-82
2021/09/10 06:07:58;;;;;;;15.33;8.40;;;21.60;99.90;;;;;;4955987;28;20195;-82
2021/09/10 06:10:24;;;;;;;15.67;8.43;;;22.20;99.90;;;;;;4976366;28;20187;-82
2021/09/10 06:12:50;;;;;;;15.60;8.17;;;22.50;99.90;;;;;;4974603;28;20182;-83
2021/09/10 06:15:16;;;;;;;13.00;8.17;;;22.50;99.90;;;;;;4972722;28;20586;-82
2021/09/10 06:17:42;;;;;;;15.67;8.87;;;22.50;99.90;;;;;;4975154;28;20549;-83
2021/09/10 06:20:09;;;;;;;15.17;8.70;;;22.50;99.90;;;;;;4973015;28;20553;-82
2021/09/10 06:22:35;;;;;;;14.70;8.63;;;22.50;99.90;;;;;;4975057;28;20677;-82
2021/09/10 06:25:02;;;;;;;16.60;9.03;;;22.50;99.90;;;;;;4978875;28;20190;-82
2021/09/10 06:27:29;;;;;;;21.87;10.07;;;22.50;99.90;;;;;;4973697;28;20596;-82
2021/09/10 06:29:54;;;;;;;20.53;10.37;;;22.60;99.90;;;;;;4957037;28;20222;-81
2021/09/10 06:32:20;;;;;;;21.53;10.03;;;22.70;99.90;;;;;;4957149;28;20207;-82
2021/09/10 06:34:46;;;;;;;19.07;9.70;;;22.70;99.90;;;;;;4973803;28;20195;-82
2021/09/10 06:37:12;;;;;;;14.97;9.43;;;22.80;99.90;;;;;;4977195;28;20183;-82
2021/09/10 06:39:37;;;;;;;17.53;9.70;;;22.90;99.90;;;;;;4961238;28;20240;-82
2021/09/10 06:42:04;;;;;;;16.77;9.60;;;22.90;99.90;;;;;;4960950;28;20549;-82
2021/09/10 06:44:29;;;;;;;18.77;9.77;;;22.90;99.90;;;;;;4956357;28;20233;-82
2021/09/10 06:46:55;;;;;;;16.93;9.80;;;22.90;99.90;;;;;;4973060;28;20191;-83
2021/09/10 06:49:21;;;;;;;20.67;10.47;;;23.00;99.90;;;;;;4976207;28;20571;-82
2021/09/10 06:51:46;;;;;;;19.33;11.17;;;23.10;99.90;;;;;;4975355;28;20183;-83
2021/09/10 06:54:12;;;;;;;19.53;10.83;;;23.30;99.90;;;;;;4958388;28;20593;-81
2021/09/10 06:56:38;;;;;;;18.50;11.10;;;23.40;99.90;;;;;;4974376;28;20183;-82
2021/09/10 06:59:04;;;;;;;22.83;12.53;;;23.50;99.90;;;;;;4957639;28;20681;-82
2021/09/10 07:01:30;;;;;;;21.80;12.17;;;23.60;99.90;;;;;;4960395;28;20200;-82
2021/09/10 07:03:56;;;;;;;22.57;12.07;;;23.90;99.90;;;;;;4941710;28;20203;-82
2021/09/10 07:06:22;;;;;;;23.70;12.83;;;24.00;99.90;;;;;;4971682;28;20191;-82
2021/09/10 07:08:48;;;;;;;20.70;12.13;;;24.10;99.90;;;;;;4972894;28;20580;-82
2021/09/10 07:11:13;;;;;;;22.47;12.33;;;24.20;99.90;;;;;;4954010;28;20187;-82
2021/09/10 07:13:39;;;;;;;23.80;11.90;;;24.30;99.90;;;;;;4956331;28;20574;-82
2021/09/10 07:16:06;;;;;;;23.30;12.10;;;24.60;99.90;;;;;;4973355;28;20715;-82
2021/09/10 07:18:32;;;;;;;18.90;10.35;;;24.90;99.90;;;;;;4956610;28;20206;-82
2021/09/10 07:20:59;;;;;;;23.77;11.00;;;25.30;99.90;;;;;;4973900;28;20728;-82
2021/09/10 07:23:25;;;;;;;20.38;10.18;;;25.60;99.90;;;;;;4956144;28;20205;-82
2021/09/10 07:25:51;;;;;;;19.40;10.52;;;25.60;99.90;;;;;;4972467;28;20277;-82
2021/09/10 07:28:16;;;;;;;18.40;9.80;;;25.50;99.90;;;;;;4953997;28;20195;-82
2021/09/10 07:30:42;;;;;;;17.67;10.23;;;25.60;99.90;;;;;;4975486;28;20187;-83
2021/09/10 07:33:08;;;;;;;19.73;10.35;;;25.60;99.90;;;;;;4974094;28;20195;-82
2021/09/10 07:35:34;;;;;;;19.73;10.00;;;25.60;99.90;;;;;;4973231;28;20190;-82
2021/09/10 07:37:59;;;;;;;18.23;9.45;;;25.80;99.90;;;;;;4957975;28;20183;-82
2021/09/10 07:40:25;;;;;;;17.35;9.73;;;25.90;99.90;;;;;;4973726;28;20179;-82
2021/09/10 07:42:51;;;;;;;18.67;10.25;;;25.80;99.90;;;;;;4973821;28;20238;-82
2021/09/10 07:45:17;;;;;;;16.38;10.07;;;25.70;99.90;;;;;;4972348;28;20185;-83
2021/09/10 07:47:42;;;;;;;15.82;9.93;;;25.30;99.90;;;;;;4976761;28;20183;-82
2021/09/10 07:50:09;;;;;;;17.33;10.40;;;25.20;99.90;;;;;;4955432;28;20187;-82
2021/09/10 07:52:34;;;;;;;17.00;10.02;;;25.20;99.90;;;;;;4956232;28;20222;-83
2021/09/10 07:55:00;;;;;;;18.73;9.55;;;25.30;99.90;;;;;;4957054;28;20239;-82
2021/09/10 07:57:26;;;;;;;18.00;9.85;;;25.30;99.90;;;;;;4972019;28;20218;-83
2021/09/10 07:59:58;;;;;;;18.65;10.95;;;25.40;99.90;;;;;;4972055;28;20263;-82
2021/09/10 08:02:27;;;;;;;16.30;10.02;;;25.20;99.90;;;;;;4972707;28;20668;-82
2021/09/10 08:04:54;;;;;;;18.25;11.02;;;25.00;99.90;;;;;;4972596;28;20230;-83
2021/09/10 08:07:19;;;;;;;21.45;11.02;;;25.00;99.90;;;;;;4972678;28;20191;-82
2021/09/10 08:09:45;;;;;;;21.88;11.10;;;24.80;99.90;;;;;;4974645;28;20586;-83
2021/09/10 08:12:11;;;;;;;20.70;11.60;;;24.60;99.90;;;;;;4971657;28;20198;-82
2021/09/10 08:14:36;;;;;;;19.35;11.25;;;24.60;99.90;;;;;;4971219;28;20562;-82
2021/09/10 08:17:02;;;;;;;20.45;11.50;;;24.60;99.90;;;;;;4957388;28;20179;-82
2021/09/10 08:19:29;;;;;;;22.43;12.00;;;24.60;99.90;;;;;;4955932;28;21422;-82
2021/09/10 08:21:54;;;;;;;24.23;12.63;;;24.60;99.90;;;;;;4972206;28;20653;-82
2021/09/10 08:24:20;;;;;;;24.00;12.07;;;24.60;99.90;;;;;;4956744;28;20178;-82
2021/09/10 08:26:46;;;;;;;22.55;12.23;;;24.60;99.90;;;;;;4972302;28;20198;-83
2021/09/10 08:29:12;;;;;;;22.35;11.70;;;24.70;99.90;;;;;;4956776;28;20208;-82
2021/09/10 08:31:38;;;;;;;22.17;12.32;;;24.70;99.90;;;;;;4971714;28;20277;-82
2021/09/10 08:34:05;;;;;;;22.13;11.33;;;24.80;99.90;;;;;;4955364;28;20269;-82
2021/09/10 08:36:32;;;;;;;22.92;13.10;;;24.80;99.90;;;;;;4974123;28;20319;-82
2021/09/10 08:38:59;;;;;;;21.13;12.68;;;24.80;99.90;;;;;;4970204;28;20692;-82
2021/09/10 08:41:27;;;;;;;24.00;12.82;;;24.80;99.90;;;;;;4950141;28;20653;-83
2021/09/10 08:43:56;;;;;;;20.45;12.90;;;24.60;99.90;;;;;;4956390;28;20183;-82
2021/09/10 08:46:24;;;;;;;25.50;14.32;;;24.60;99.90;;;;;;4969732;28;20185;-82
2021/09/10 08:48:50;;;;;;;23.97;15.27;;;24.50;99.90;;;;;;4972632;28;20206;-83
2021/09/10 08:51:18;;;;;;;25.48;14.43;;;24.50;99.90;;;;;;4973267;28;20199;-83
2021/09/10 08:53:44;;;;;;;22.53;15.03;;;24.50;99.90;;;;;;4970967;28;20274;-83
2021/09/10 08:56:10;;;;;;;24.43;15.07;;;24.60;99.90;;;;;;4956442;28;20190;-83
2021/09/10 08:58:36;;;;;;;27.23;15.63;;;24.50;99.90;;;;;;4974023;28;20175;-82
2021/09/10 09:01:02;;;;;;;29.13;16.97;;;24.40;99.90;;;;;;4977543;28;20191;-84
2021/09/10 09:03:30;;;;;;;24.13;16.07;;;24.30;99.90;;;;;;4965728;28;20175;-84
2021/09/10 09:05:56;;;;;;;29.90;16.27;;;24.20;99.90;;;;;;4961138;28;20253;-84
2021/09/10 09:08:22;;;;;;;27.93;16.90;;;24.10;99.90;;;;;;4977667;28;20183;-83
2021/09/10 09:11:11;;;;;;;28.07;16.83;;;23.90;99.90;;;;;;4975847;28;20179;-83
2021/09/10 09:13:44;;;;;;;28.73;16.13;;;23.70;99.90;;;;;;4973739;28;20222;-84
2021/09/10 09:16:25;;;;;;;27.03;16.50;;;23.60;99.90;;;;;;4977561;28;20258;-83
2021/09/10 09:19:03;;;;;;;29.30;16.83;;;23.50;99.90;;;;;;4978388;28;20642;-83
2021/09/10 09:21:31;;;;;;;29.47;16.77;;;23.40;99.90;;;;;;4973243;28;20183;-84
2021/09/10 09:24:16;;;;;;;28.10;16.43;;;23.30;99.90;;;;;;4964629;28;20219;-84
2021/09/10 09:26:44;;;;;;;27.70;17.10;;;23.40;99.90;;;;;;4979036;28;20198;-84
2021/09/10 09:29:13;;;;;;;27.80;16.87;;;23.40;99.90;;;;;;4966690;28;20206;-85
2021/09/10 09:31:40;;;;;;;31.03;18.47;;;23.40;99.90;;;;;;4959553;28;20286;-84
2021/09/10 09:34:07;;;;;;;30.00;17.40;;;23.40;99.90;;;;;;4961754;28;20699;-84
2021/09/10 09:36:34;;;;;;;33.40;18.07;;;23.10;99.90;;;;;;4975413;28;20286;-84
2021/09/10 09:39:10;;;;;;;29.07;17.60;;;23.10;99.90;;;;;;4960745;28;20195;-85
2021/09/10 09:41:42;;;;;;;29.37;17.33;;;23.00;99.90;;;;;;4970748;28;20244;-84
2021/09/10 09:44:14;;;;;;;35.57;18.33;;;22.90;99.90;;;;;;4964546;28;20620;-84
2021/09/10 09:46:41;;;;;;;34.73;19.47;;;22.80;99.90;;;;;;4975544;28;20191;-84
2021/09/10 09:49:10;;;;;;;33.13;19.20;;;22.80;99.90;;;;;;4976787;28;20186;-85
2021/09/10 09:51:37;;;;;;;35.67;19.30;;;22.80;99.90;;;;;;4978331;28;20186;-84
2021/09/10 09:54:02;;;;;;;31.47;18.43;;;22.80;99.90;;;;;;4975187;28;20241;-85
2021/09/10 09:56:28;;;;;;;30.60;17.37;;;22.80;99.90;;;;;;4962054;28;20277;-84
2021/09/10 09:58:55;;;;;;;28.47;16.87;;;22.70;99.90;;;;;;4959734;28;20190;-84
2021/09/10 10:01:21;;;;;;;31.67;17.47;;;22.70;99.90;;;;;;4973574;28;20194;-85
2021/09/10 10:03:47;;;;;;;25.70;16.50;;;22.70;99.90;;;;;;4961159;28;20638;-84
2021/09/10 10:06:25;;;;;;;26.40;16.47;;;22.60;99.90;;;;;;4976055;28;20182;-84
2021/09/10 10:09:08;;;;;;;24.83;15.33;;;22.60;99.90;;;;;;4944590;28;20657;-84
2021/09/10 10:11:43;;;;;;;29.83;15.70;;;22.50;99.90;;;;;;4959422;28;20187;-84
2021/09/10 10:14:13;;;;;;;27.80;16.10;;;22.50;99.90;;;;;;4959101;28;20540;-84
2021/09/10 10:16:44;;;;;;;27.33;16.27;;;22.40;99.90;;;;;;4979617;28;20215;-84
2021/09/10 10:19:19;;;;;;;27.97;16.83;;;22.50;99.90;;;;;;4974266;28;20546;-84
2021/09/10 10:21:48;;;;;;;28.57;17.60;;;22.50;99.90;;;;;;4975864;28;20198;-84
2021/09/10 10:24:37;;;;;;;31.70;17.90;;;22.40;99.90;;;;;;4976343;28;20194;-84
2021/09/10 10:27:27;;;;;;;30.97;18.50;;;22.40;99.90;;;;;;4975718;28;20642;-84
2021/09/10 10:29:53;;;;;;;32.00;18.67;;;22.50;99.90;;;;;;4961160;28;20197;-84
2021/09/10 10:32:30;;;;;;;35.73;20.70;;;22.60;99.90;;;;;;4944143;28;20187;-85
2021/09/10 10:35:21;;;;;;;32.50;19.30;;;22.70;99.90;;;;;;4974514;28;20210;-84
2021/09/10 10:37:51;;;;;;;34.87;19.97;;;22.90;99.90;;;;;;4976083;28;20261;-84
2021/09/10 10:40:51;;;;;;;29.90;19.10;;;23.00;99.90;;;;;;4974564;28;20277;-85
2021/09/10 10:43:22;;;;;;;28.30;17.33;;;23.20;99.90;;;;;;4964300;28;20183;-85
2021/09/10 10:45:48;;;;;;;27.27;16.83;;;23.40;99.90;;;;;;4975971;28;20604;-84
2021/09/10 10:48:40;;;;;;;27.13;15.47;;;23.50;99.90;;;;;;4956176;28;20265;-85
2021/09/10 10:51:21;;;;;;;22.40;14.03;;;23.70;99.90;;;;;;4956967;28;20196;-84
2021/09/10 10:53:47;;;;;;;21.87;13.33;;;23.90;99.90;;;;;;4958101;28;20238;-84
2021/09/10 10:56:22;;;;;;;18.37;11.47;;;24.00;99.90;;;;;;4978679;28;20187;-84
2021/09/10 10:59:15;;;;;;;21.07;12.50;;;24.10;99.90;;;;;;4975425;28;20237;-84
2021/09/10 11:05:06;;;;;;;18.57;12.47;;;24.30;99.90;;;;;;4974002;28;20225;-85
2021/09/10 11:07:32;;;;;;;22.27;13.17;;;24.30;99.90;;;;;;4976151;28;20205;-84
2021/09/10 11:10:04;;;;;;;22.67;13.30;;;24.40;99.90;;;;;;4974767;28;20553;-84
2021/09/10 11:12:30;;;;;;;20.10;12.00;;;24.60;99.90;;;;;;4973277;28;20210;-84
2021/09/10 11:14:56;;;;;;;16.90;11.07;;;25.00;99.90;;;;;;4957122;28;20234;-84
2021/09/10 11:17:27;;;;;;;18.33;10.20;;;25.20;99.90;;;;;;4957768;28;20221;-84
2021/09/10 11:19:57;;;;;;;15.70;9.98;;;25.40;99.90;;;;;;4958921;28;20646;-84
2021/09/10 11:22:25;;;;;;;16.05;9.38;;;25.80;99.90;;;;;;4975558;28;20183;-84
2021/09/10 11:25:04;;;;;;;15.13;9.20;;;26.40;99.90;;;;;;4978099;28;20195;-84
2021/09/10 11:27:32;;;;;;;11.68;8.55;;;26.80;99.90;;;;;;4970947;28;20274;-83
2021/09/10 11:30:09;;;;;;;12.63;7.90;;;27.10;99.90;;;;;;4972290;28;20186;-83
2021/09/10 11:32:35;;;;;;;11.90;7.53;;;27.20;99.90;;;;;;4974994;28;20194;-84
2021/09/10 11:35:01;;;;;;;13.13;7.35;;;27.10;99.90;;;;;;4973424;28;20233;-83
2021/09/10 11:37:28;;;;;;;11.13;7.63;;;26.70;99.90;;;;;;4972499;28;20214;-84
2021/09/10 11:39:55;;;;;;;11.68;7.63;;;26.60;99.90;;;;;;4953825;28;20597;-84
2021/09/10 11:42:40;;;;;;;12.20;7.20;;;26.50;99.90;;;;;;4974699;28;20270;-84
2021/09/10 11:45:13;;;;;;;11.45;6.82;;;26.50;99.90;;;;;;4972572;28;20278;-83
2021/09/10 11:47:41;;;;;;;12.63;6.30;;;26.40;99.90;;;;;;4973400;28;20183;-84
2021/09/10 11:50:09;;;;;;;9.60;6.72;;;26.80;99.90;;;;;;4976713;28;20183;-83
2021/09/10 11:52:40;;;;;;;13.25;7.25;;;27.30;99.90;;;;;;4973899;28;20221;-84
2021/09/10 11:55:16;;;;;;;10.55;6.53;;;27.50;99.90;;;;;;4974522;28;20307;-84
2021/09/10 11:57:44;;;;;;;10.35;6.68;;;27.60;99.90;;;;;;4941461;28;20186;-84
2021/09/10 12:00:23;;;;;;;8.82;5.80;;;27.60;99.90;;;;;;4959937;28;20179;-84
2021/09/10 12:02:58;;;;;;;9.98;6.22;;;27.50;99.90;;;;;;4956616;28;20263;-83
2021/09/10 12:05:24;;;;;;;12.18;6.10;;;27.20;99.90;;;;;;4973687;28;20210;-85
2021/09/10 12:07:53;;;;;;;9.02;6.43;;;26.90;99.90;;;;;;4977562;28;20668;-84
2021/09/10 12:10:34;;;;;;;12.30;6.43;;;26.50;99.90;;;;;;4974593;28;20230;-83
2021/09/10 12:13:32;;;;;;;10.23;6.60;;;26.40;99.90;;;;;;4939060;28;20196;-83
2021/09/10 12:15:58;;;;;;;10.27;6.60;;;26.40;99.90;;;;;;4972762;28;20202;-83
2021/09/10 12:18:24;;;;;;;11.90;6.85;;;26.40;99.90;;;;;;4974387;28;20179;-84
2021/09/10 12:20:56;;;;;;;11.35;7.15;;;26.40;99.90;;;;;;4957171;28;20277;-85
2021/09/10 12:23:22;;;;;;;12.07;7.32;;;26.60;99.90;;;;;;4971397;28;20343;-84
2021/09/10 12:26:00;;;;;;;11.52;7.72;;;26.70;99.90;;;;;;4970952;28;20179;-84
2021/09/10 12:28:33;;;;;;;12.45;7.35;;;26.60;99.90;;;;;;4955162;28;20179;-84
2021/09/10 12:31:10;;;;;;;17.95;8.30;;;26.70;99.90;;;;;;4969734;28;20245;-83
2021/09/10 12:33:38;;;;;;;14.65;7.95;;;26.70;99.90;;;;;;4970637;28;20282;-84
2021/09/10 12:36:10;;;;;;;15.07;7.85;;;27.00;99.90;;;;;;4971120;28;20181;-84
2021/09/10 12:38:44;;;;;;;14.40;7.85;;;27.10;99.90;;;;;;4972427;28;20183;-84
2021/09/10 12:41:11;;;;;;;10.77;7.20;;;27.20;99.90;;;;;;4975108;28;20187;-85